Time;durP1;ratioP1;P1;durP2;ratioP2;P2;SDS_P1;SDS_P2;PMS_P1;PMS_P2;Temp;Humidity;BMP_temperature;BMP_pressure;BME280_temperature;BME280_humidity;BME280_pressure;Samples;Min_cycle;Max_cycle;Signal;HPM_P1;HPM_P2
2022/05/31 00:00:49;;;;;;;;;;;;;;;9.57;75.10;101334.50;4975973;28;19925;-76
2022/05/31 00:03:14;;;;;;;;;;;;;;;9.55;75.67;101331.16;4975538;28;19922;-74
2022/05/31 00:05:40;;;;;;;;;;;;;;;9.53;75.80;101335.84;4976809;28;20278;-73
2022/05/31 00:08:06;;;;;;;;;;;;;;;9.52;76.12;101334.16;4979590;28;20360;-73
2022/05/31 00:10:31;;;;;;;;;;;;;;;9.50;75.87;101336.16;4979198;28;19976;-76
2022/05/31 00:12:56;;;;;;;;;;;;;;;9.48;76.04;101330.09;4965041;28;19918;-76
2022/05/31 00:15:21;;;;;;;;;;;;;;;9.42;75.99;101329.75;4976769;28;19914;-76
2022/05/31 00:17:47;;;;;;;;;;;;;;;9.40;76.31;101328.22;4975464;28;19918;-76
2022/05/31 00:20:13;;;;;;;;;;;;;;;9.36;76.52;101325.03;4975190;28;19995;-76
2022/05/31 00:22:38;;;;;;;;;;;;;;;9.36;76.73;101326.88;4975014;28;19922;-76
2022/05/31 00:25:04;;;;;;;;;;;;;;;9.34;77.11;101331.56;4958850;28;19933;-75
2022/05/31 00:27:30;;;;;;;;;;;;;;;9.32;77.25;101325.50;4975372;28;19925;-75
2022/05/31 00:29:55;;;;;;;;;;;;;;;9.29;77.67;101324.00;4977831;28;19918;-74
2022/05/31 00:32:22;;;;;;;;;;;;;;;9.28;77.85;101332.22;4981997;28;19926;-75
2022/05/31 00:34:48;;;;;;;;;;;;;;;9.28;78.04;101338.44;4964481;28;19918;-74
2022/05/31 00:37:13;;;;;;;;;;;;;;;9.29;78.68;101329.38;4959487;28;20279;-75
2022/05/31 00:39:38;;;;;;;;;;;;;;;9.31;78.50;101334.59;4976536;28;19994;-75
2022/05/31 00:42:08;;;;;;;;;;;;;;;9.32;78.69;101330.88;4975227;28;19918;-75
2022/05/31 00:44:34;;;;;;;;;;;;;;;9.31;78.65;101322.00;4974772;28;19964;-77
2022/05/31 00:47:02;;;;;;;;;;;;;;;9.30;78.67;101324.84;4974568;28;19925;-75
2022/05/31 00:49:32;;;;;;;;;;;;;;;9.28;78.83;101322.31;4974848;28;19965;-75
2022/05/31 00:51:58;;;;;;;;;;;;;;;9.28;78.92;101324.16;4974342;28;19922;-74
2022/05/31 00:54:24;;;;;;;;;;;;;;;9.27;79.31;101320.66;4974419;28;19944;-75
2022/05/31 00:56:49;;;;;;;;;;;;;;;9.27;79.40;101330.53;4973747;28;20298;-75
2022/05/31 00:59:16;;;;;;;;;;;;;;;9.26;79.32;101327.00;4974320;28;19918;-75
2022/05/31 01:01:42;;;;;;;;;;;;;;;9.19;79.07;101323.31;4974034;28;19944;-75
2022/05/31 01:04:07;;;;;;;;;;;;;;;9.18;79.51;101321.59;4974499;28;19937;-76
2022/05/31 01:06:33;;;;;;;;;;;;;;;9.17;79.35;101311.88;4956713;28;19962;-76
2022/05/31 01:08:58;;;;;;;;;;;;;;;9.18;79.89;101313.53;4974498;28;20001;-76
2022/05/31 01:11:24;;;;;;;;;;;;;;;9.17;79.79;101309.19;4973948;28;20008;-75
2022/05/31 01:13:49;;;;;;;;;;;;;;;9.18;80.13;101305.50;4956414;28;19925;-76
2022/05/31 01:16:15;;;;;;;;;;;;;;;9.16;79.84;101316.41;4956271;28;19925;-75
2022/05/31 01:18:40;;;;;;;;;;;;;;;9.16;79.99;101312.84;4956421;28;19953;-76
2022/05/31 01:21:05;;;;;;;;;;;;;;;9.15;80.08;101316.56;4973948;28;19918;-75
2022/05/31 01:23:32;;;;;;;;;;;;;;;9.12;80.29;101311.50;4956838;28;19925;-75
2022/05/31 01:25:58;;;;;;;;;;;;;;;9.12;80.70;101311.50;4973881;28;20370;-76
2022/05/31 01:28:44;;;;;;;;;;;;;;;9.11;80.58;101312.50;4973906;28;19918;-76
2022/05/31 01:31:27;;;;;;;;;;;;;;;9.10;81.10;101314.34;4956891;28;19958;-76
2022/05/31 01:34:11;;;;;;;;;;;;;;;9.12;81.24;101311.50;4955775;28;20224;-76
2022/05/31 01:36:38;;;;;;;;;;;;;;;9.07;81.14;101308.47;4973527;28;19941;-76
2022/05/31 01:39:05;;;;;;;;;;;;;;;9.07;81.07;101305.78;4973728;28;20019;-76
2022/05/31 01:41:33;;;;;;;;;;;;;;;9.05;81.04;101311.31;4973571;28;20014;-76
2022/05/31 01:43:59;;;;;;;;;;;;;;;9.00;80.79;101309.13;4973443;28;19917;-76
2022/05/31 01:46:25;;;;;;;;;;;;;;;8.99;80.90;101310.09;4956432;28;19984;-76
2022/05/31 01:48:50;;;;;;;;;;;;;;;8.98;81.04;101304.91;4974774;28;19918;-76
2022/05/31 01:51:15;;;;;;;;;;;;;;;8.94;81.38;101298.16;4957614;28;19914;-75
2022/05/31 01:53:41;;;;;;;;;;;;;;;8.90;81.78;101302.16;4995056;28;19948;-76
2022/05/31 01:56:06;;;;;;;;;;;;;;;8.89;82.51;101298.63;4974414;28;19929;-74
2022/05/31 01:58:32;;;;;;;;;;;;;;;8.88;82.78;101293.44;4956299;28;20373;-76
2022/05/31 02:00:57;;;;;;;;;;;;;;;8.87;82.51;101303.31;4973300;28;19929;-76
2022/05/31 02:03:22;;;;;;;;;;;;;;;8.84;82.61;101292.91;4956026;28;20301;-76
2022/05/31 02:05:48;;;;;;;;;;;;;;;8.84;83.10;101294.75;4956043;28;20366;-76
2022/05/31 02:08:14;;;;;;;;;;;;;;;8.85;82.95;101299.97;4972356;28;19922;-76
2022/05/31 02:10:42;;;;;;;;;;;;;;;8.85;83.34;101293.78;4973147;28;19928;-76
2022/05/31 02:13:07;;;;;;;;;;;;;;;8.83;82.75;101296.59;4972952;28;19914;-76
2022/05/31 02:15:33;;;;;;;;;;;;;;;8.80;83.03;101296.94;4972517;28;19952;-75
2022/05/31 02:17:58;;;;;;;;;;;;;;;8.80;83.12;101294.25;4972893;28;20450;-75
2022/05/31 02:20:23;;;;;;;;;;;;;;;8.77;82.68;101298.09;4972996;28;19918;-75
2022/05/31 02:22:48;;;;;;;;;;;;;;;8.75;82.84;101296.56;4972657;28;20277;-77
2022/05/31 02:25:14;;;;;;;;;;;;;;;8.73;83.23;101295.88;4972691;28;20437;-75
2022/05/31 02:27:39;;;;;;;;;;;;;;;8.70;83.77;101288.97;4973007;28;19918;-76
2022/05/31 02:30:04;;;;;;;;;;;;;;;8.72;83.58;101295.03;4972827;28;20009;-76
2022/05/31 02:32:30;;;;;;;;;;;;;;;8.72;83.79;101292.34;4973420;28;19918;-75
2022/05/31 02:34:55;;;;;;;;;;;;;;;8.72;83.75;101283.47;4960958;28;19922;-75
2022/05/31 02:37:20;;;;;;;;;;;;;;;8.71;83.40;101289.81;4974607;28;19921;-75
2022/05/31 02:39:46;;;;;;;;;;;;;;;8.71;83.66;101289.81;4974394;28;19961;-76
2022/05/31 02:42:11;;;;;;;;;;;;;;;8.70;83.88;101290.81;4974498;28;19937;-76
2022/05/31 02:44:36;;;;;;;;;;;;;;;8.71;83.72;101285.28;4973252;28;19918;-75
2022/05/31 02:47:02;;;;;;;;;;;;;;;8.71;83.78;101287.13;4955755;28;19997;-74
2022/05/31 02:49:27;;;;;;;;;;;;;;;8.71;83.77;101277.22;4973107;28;19922;-74
2022/05/31 02:51:53;;;;;;;;;;;;;;;8.70;83.99;101286.28;4973935;28;20013;-75
2022/05/31 02:54:19;;;;;;;;;;;;;;;8.70;83.94;101288.97;4974554;28;19917;-75
2022/05/31 02:56:46;;;;;;;;;;;;;;;8.68;83.95;101288.28;4974638;28;20404;-75
2022/05/31 02:59:11;;;;;;;;;;;;;;;8.68;84.76;101284.78;4973094;28;20032;-75
2022/05/31 03:01:36;;;;;;;;;;;;;;;8.69;84.66;101292.69;4973125;28;19953;-75
2022/05/31 03:04:02;;;;;;;;;;;;;;;8.68;84.77;101284.78;4972958;28;20005;-74
2022/05/31 03:06:28;;;;;;;;;;;;;;;8.67;84.83;101280.41;4973294;28;19922;-74
2022/05/31 03:08:53;;;;;;;;;;;;;;;8.69;84.79;101291.81;4973273;28;19918;-74
2022/05/31 03:11:35;;;;;;;;;;;;;;;8.68;85.12;101284.78;4973437;28;19918;-74
2022/05/31 03:14:09;;;;;;;;;;;;;;;8.65;85.03;101287.78;4956131;28;20378;-74
2022/05/31 03:16:34;;;;;;;;;;;;;;;8.63;85.05;101279.03;4954164;29;20285;-74
2022/05/31 03:19:04;;;;;;;;;;;;;;;8.62;85.50;101272.00;4957515;28;19968;-74
2022/05/31 03:21:36;;;;;;;;;;;;;;;8.61;85.32;101276.53;4968277;28;19918;-74
2022/05/31 03:24:02;;;;;;;;;;;;;;;8.61;85.36;101275.66;4965823;28;19910;-75
2022/05/31 03:26:28;;;;;;;;;;;;;;;8.63;85.40;101274.50;4992352;28;20304;-74
2022/05/31 03:28:54;;;;;;;;;;;;;;;8.64;85.37;101275.38;4958743;28;20021;-76
2022/05/31 03:31:19;;;;;;;;;;;;;;;8.62;85.09;101282.72;4959283;28;19918;-74
2022/05/31 03:33:44;;;;;;;;;;;;;;;8.63;85.34;101284.41;4958447;28;20021;-75
2022/05/31 03:36:11;;;;;;;;;;;;;;;8.62;85.24;101282.72;4975612;28;19949;-74
2022/05/31 03:38:36;;;;;;;;;;;;;;;8.63;85.42;101273.66;4975758;28;19933;-74
2022/05/31 03:41:01;;;;;;;;;;;;;;;8.64;85.87;101275.38;4975841;28;19984;-76
2022/05/31 03:43:30;;;;;;;;;;;;;;;8.64;85.60;101275.38;4976020;28;20068;-75
2022/05/31 03:45:55;;;;;;;;;;;;;;;8.66;85.90;101273.34;4975941;28;19949;-75
2022/05/31 03:48:21;;;;;;;;;;;;;;;8.67;85.54;101275.03;4976359;28;19985;-75
2022/05/31 03:50:46;;;;;;;;;;;;;;;8.68;85.77;101272.19;4975595;28;20043;-76
2022/05/31 03:53:12;;;;;;;;;;;;;;;8.67;86.00;101265.16;4942140;28;19922;-74
2022/05/31 03:55:38;;;;;;;;;;;;;;;8.70;86.21;101270.19;4975288;28;20433;-77
2022/05/31 03:58:03;;;;;;;;;;;;;;;8.71;85.84;101271.03;4975825;28;19914;-76
2022/05/31 04:00:28;;;;;;;;;;;;;;;8.74;85.96;101270.72;4974869;28;20020;-76
2022/05/31 04:02:55;;;;;;;;;;;;;;;8.76;85.85;101268.72;4975182;28;20303;-76
2022/05/31 04:05:20;;;;;;;;;;;;;;;8.80;86.02;101264.72;4975358;28;19977;-76
2022/05/31 04:07:45;;;;;;;;;;;;;;;8.83;86.11;101264.41;4975783;28;19917;-76
2022/05/31 04:10:11;;;;;;;;;;;;;;;8.89;85.74;101266.44;4974911;28;19977;-75
2022/05/31 04:12:37;;;;;;;;;;;;;;;8.88;85.44;101264.75;4975263;28;19997;-75
2022/05/31 04:15:02;;;;;;;;;;;;;;;8.90;85.52;101260.06;4974714;28;19996;-75
2022/05/31 04:17:27;;;;;;;;;;;;;;;8.92;85.54;101258.03;4975238;28;19960;-75
2022/05/31 04:19:52;;;;;;;;;;;;;;;8.94;85.58;101256.06;4974723;28;20290;-76
2022/05/31 04:22:18;;;;;;;;;;;;;;;8.97;85.49;101253.03;4970952;28;19918;-76
2022/05/31 04:24:43;;;;;;;;;;;;;;;8.98;85.52;101254.75;4974635;28;19918;-76
2022/05/31 04:27:08;;;;;;;;;;;;;;;9.01;85.64;101257.09;4981653;28;19917;-75
2022/05/31 04:29:34;;;;;;;;;;;;;;;9.06;85.88;101258.44;4966985;28;19925;-76
2022/05/31 04:32:00;;;;;;;;;;;;;;;9.08;85.67;101261.81;4984003;28;19918;-76
2022/05/31 04:34:25;;;;;;;;;;;;;;;9.08;85.80;101253.75;4960749;28;19941;-76
2022/05/31 04:36:50;;;;;;;;;;;;;;;9.08;85.96;101256.44;4975119;28;20382;-76
2022/05/31 04:39:15;;;;;;;;;;;;;;;9.12;86.12;101255.13;4974863;28;19925;-76
2022/05/31 04:41:41;;;;;;;;;;;;;;;9.13;85.87;101257.63;4973793;28;19918;-75
2022/05/31 04:44:06;;;;;;;;;;;;;;;9.17;85.88;101255.47;4974108;28;20281;-74
2022/05/31 04:46:32;;;;;;;;;;;;;;;9.22;85.97;101255.84;4972761;28;19977;-75
2022/05/31 04:48:58;;;;;;;;;;;;;;;9.25;85.98;101255.50;4975371;28;19964;-76
2022/05/31 04:51:23;;;;;;;;;;;;;;;9.32;85.46;101244.94;4975034;28;19925;-74
2022/05/31 04:53:49;;;;;;;;;;;;;;;9.36;85.76;101249.81;4993221;28;19921;-76
2022/05/31 04:56:18;;;;;;;;;;;;;;;9.45;85.51;101243.47;4994352;28;19922;-75
2022/05/31 04:58:44;;;;;;;;;;;;;;;9.52;85.59;101248.19;4975591;28;19969;-75
2022/05/31 05:01:09;;;;;;;;;;;;;;;9.57;85.29;101243.16;4973521;28;20000;-75
2022/05/31 05:03:34;;;;;;;;;;;;;;;9.65;85.18;101254.75;4974352;28;20013;-75
2022/05/31 05:06:03;;;;;;;;;;;;;;;9.74;84.82;101242.19;4974091;28;20001;-75
2022/05/31 05:08:28;;;;;;;;;;;;;;;9.81;84.44;101239.66;4955074;29;19934;-75
2022/05/31 05:10:54;;;;;;;;;;;;;;;9.88;84.00;101244.19;4972199;28;19921;-75
2022/05/31 05:13:19;;;;;;;;;;;;;;;10.05;83.19;101241.50;4974696;28;19945;-75
2022/05/31 05:15:44;;;;;;;;;;;;;;;10.10;82.42;101239.97;4973686;28;19973;-76
2022/05/31 05:18:09;;;;;;;;;;;;;;;10.22;81.88;101240.47;4973511;28;20358;-76
2022/05/31 05:20:35;;;;;;;;;;;;;;;10.30;81.41;101243.19;4974492;28;20295;-75
2022/05/31 05:23:02;;;;;;;;;;;;;;;10.46;80.88;101238.81;4942532;28;20262;-74
2022/05/31 05:25:27;;;;;;;;;;;;;;;10.48;80.24;101234.09;4974088;28;19944;-75
2022/05/31 05:27:53;;;;;;;;;;;;;;;10.50;80.80;101237.44;4974034;28;20405;-76
2022/05/31 05:33:02;;;;;;;;;;;;;;;10.60;80.51;101231.88;4971529;28;20048;-76
2022/05/31 05:35:27;;;;;;;;;;;;;;;10.69;80.32;101231.69;4970880;28;19981;-77
2022/05/31 05:37:52;;;;;;;;;;;;;;;10.74;80.24;101239.22;4974532;28;20009;-76
2022/05/31 05:40:17;;;;;;;;;;;;;;;10.73;79.99;101238.38;4956578;28;19965;-76
2022/05/31 05:42:43;;;;;;;;;;;;;;;10.81;80.03;101228.59;4974165;28;19949;-77
2022/05/31 05:45:10;;;;;;;;;;;;;;;10.71;79.45;101237.69;4975425;28;20037;-76
2022/05/31 05:47:35;;;;;;;;;;;;;;;10.66;79.02;101232.00;4975145;28;20322;-78
2022/05/31 05:50:00;;;;;;;;;;;;;;;10.82;79.28;101246.41;4957763;28;19917;-78
2022/05/31 05:52:25;;;;;;;;;;;;;;;10.88;79.27;101240.38;4974667;28;19918;-78
2022/05/31 05:54:50;;;;;;;;;;;;;;;10.93;78.63;101235.28;4975584;28;19928;-78
2022/05/31 05:57:16;;;;;;;;;;;;;;;11.05;78.47;101241.13;4973920;28;19925;-78
2022/05/31 05:59:41;;;;;;;;;;;;;;;11.14;78.76;101243.59;4956613;28;19969;-77
2022/05/31 06:02:09;;;;;;;;;;;;;;;11.28;78.38;101247.41;4973990;28;19917;-77
2022/05/31 06:04:38;;;;;;;;;;;;;;;11.28;77.08;101244.72;4957160;28;19920;-78
2022/05/31 06:07:10;;;;;;;;;;;;;;;11.37;77.03;101248.19;4957054;28;19918;-77
2022/05/31 06:09:35;;;;;;;;;;;;;;;11.37;76.23;101245.50;4974213;28;19925;-76
2022/05/31 06:12:03;;;;;;;;;;;;;;;11.48;76.23;101241.56;4974891;28;19918;-78
2022/05/31 06:14:32;;;;;;;;;;;;;;;11.49;75.88;101244.09;4976703;28;20286;-77
2022/05/31 06:16:58;;;;;;;;;;;;;;;11.49;75.64;101243.25;4940587;28;19941;-77
2022/05/31 06:19:25;;;;;;;;;;;;;;;11.64;75.70;101242.31;4955477;28;19926;-78
2022/05/31 06:21:50;;;;;;;;;;;;;;;12.03;75.75;101246.75;4973872;28;19922;-78
2022/05/31 06:24:16;;;;;;;;;;;;;;;12.40;74.96;101245.06;4979576;28;19936;-78
2022/05/31 06:26:41;;;;;;;;;;;;;;;12.89;72.92;101239.13;4972405;28;20006;-80
2022/05/31 06:29:07;;;;;;;;;;;;;;;13.47;69.96;101239.22;4992918;28;19966;-78
2022/05/31 06:31:32;;;;;;;;;;;;;;;13.78;67.49;101241.63;4992034;28;19921;-79
2022/05/31 06:33:57;;;;;;;;;;;;;;;14.07;66.86;101239.81;4992295;28;19925;-79
2022/05/31 06:36:23;;;;;;;;;;;;;;;14.40;66.13;101241.94;4981394;28;20282;-79
2022/05/31 06:38:48;;;;;;;;;;;;;;;14.67;64.08;101237.56;4974403;28;20343;-79
2022/05/31 06:41:13;;;;;;;;;;;;;;;14.76;61.97;101232.81;4956405;28;19918;-78
2022/05/31 06:43:39;;;;;;;;;;;;;;;15.05;62.05;101239.84;4974055;28;19917;-77
2022/05/31 06:46:04;;;;;;;;;;;;;;;15.23;60.21;101239.31;4974387;28;20370;-79
2022/05/31 06:48:30;;;;;;;;;;;;;;;15.66;60.14;101239.00;4974503;28;19966;-79
2022/05/31 06:50:55;;;;;;;;;;;;;;;16.21;58.65;101242.41;4974453;28;20470;-78
2022/05/31 06:58:48;;;;;;;;;;;;;;;17.31;53.73;101235.25;4973442;28;20325;-77
2022/05/31 07:01:15;;;;;;;;;;;;;;;17.67;51.94;101236.53;4973146;28;19918;-77
2022/05/31 07:03:40;;;;;;;;;;;;;;;17.89;50.54;101239.75;4973146;28;19914;-78
2022/05/31 07:06:05;;;;;;;;;;;;;;;18.17;51.21;101233.88;4956250;28;20066;-78
2022/05/31 07:08:30;;;;;;;;;;;;;;;19.22;48.93;101234.88;4973153;28;20008;-78
2022/05/31 07:10:56;;;;;;;;;;;;;;;19.52;45.46;101238.44;4972747;28;20042;-78
2022/05/31 07:13:21;;;;;;;;;;;;;;;20.14;45.27;101234.56;4972974;28;19989;-78
2022/05/31 07:15:46;;;;;;;;;;;;;;;21.17;43.81;101233.09;4973163;28;19914;-78
2022/05/31 07:18:11;;;;;;;;;;;;;;;22.20;41.04;101243.22;4973698;28;19914;-78
2022/05/31 07:20:37;;;;;;;;;;;;;;;22.71;40.01;101233.00;4973428;28;19914;-78
2022/05/31 07:23:02;;;;;;;;;;;;;;;23.12;39.02;101236.31;4972637;28;19914;-78
2022/05/31 07:25:27;;;;;;;;;;;;;;;23.95;36.63;101236.09;4973064;28;20053;-78
2022/05/31 07:27:52;;;;;;;;;;;;;;;23.74;36.73;101235.91;4972695;28;19997;-78
2022/05/31 07:30:17;;;;;;;;;;;;;;;23.63;36.44;101236.88;4972798;28;20266;-77
2022/05/31 07:32:43;;;;;;;;;;;;;;;23.99;35.44;101234.47;4972829;28;20537;-78
2022/05/31 07:35:08;;;;;;;;;;;;;;;23.31;35.29;101239.53;4973413;28;19950;-80
2022/05/31 07:37:33;;;;;;;;;;;;;;;23.15;35.81;101231.13;4956081;28;19924;-79
2022/05/31 07:39:59;;;;;;;;;;;;;;;23.34;34.79;101237.09;4973112;28;19969;-79
2022/05/31 07:42:24;;;;;;;;;;;;;;;22.53;36.13;101231.38;4972975;28;19918;-80
2022/05/31 07:44:52;;;;;;;;;;;;;;;23.17;36.32;101225.34;4973067;28;19943;-79
2022/05/31 07:47:17;;;;;;;;;;;;;;;23.65;34.85;101223.69;4973552;28;19922;-79
2022/05/31 07:49:42;;;;;;;;;;;;;;;24.99;31.58;101231.84;4973575;28;19914;-79
2022/05/31 07:52:08;;;;;;;;;;;;;;;23.61;31.86;101223.38;4976174;28;19914;-80
2022/05/31 07:54:33;;;;;;;;;;;;;;;23.12;31.43;101226.16;4989218;28;19951;-80
2022/05/31 07:56:59;;;;;;;;;;;;;;;22.87;34.34;101210.16;4990527;28;19914;-78
2022/05/31 07:59:24;;;;;;;;;;;;;;;23.91;33.70;101218.44;4974635;28;19937;-78
2022/05/31 08:01:49;;;;;;;;;;;;;;;24.96;31.55;101221.34;4972652;28;20301;-77
2022/05/31 08:04:14;;;;;;;;;;;;;;;23.45;30.07;101219.63;4972822;28;20366;-78
2022/05/31 08:06:40;;;;;;;;;;;;;;;22.64;29.84;101215.88;4973690;28;19914;-78
2022/05/31 08:09:05;;;;;;;;;;;;;;;22.54;30.37;101220.16;4976106;28;19914;-77
2022/05/31 08:11:31;;;;;;;;;;;;;;;23.87;30.29;101215.41;4975899;28;19981;-77
2022/05/31 08:13:57;;;;;;;;;;;;;;;24.83;30.66;101213.56;4976213;28;19914;-77
2022/05/31 08:16:23;;;;;;;;;;;;;;;24.89;28.77;101221.59;4977076;28;19918;-78
2022/05/31 08:18:48;;;;;;;;;;;;;;;24.79;27.52;101209.72;4977089;28;20362;-80
2022/05/31 08:21:18;;;;;;;;;;;;;;;24.89;28.50;101210.59;4981500;28;19914;-78
2022/05/31 08:23:43;;;;;;;;;;;;;;;24.91;28.18;101213.09;4996517;28;20001;-79
2022/05/31 08:26:09;;;;;;;;;;;;;;;25.48;26.79;101206.66;4978126;28;19974;-79
2022/05/31 08:28:34;;;;;;;;;;;;;;;25.34;27.17;101206.34;4986899;28;19918;-79
2022/05/31 08:31:00;;;;;;;;;;;;;;;25.32;26.36;101213.22;4982694;28;19914;-78
2022/05/31 08:33:25;;;;;;;;;;;;;;;24.13;25.11;101204.63;4961428;28;19914;-78
2022/05/31 08:35:51;;;;;;;;;;;;;;;23.58;26.21;101206.59;4976406;28;19918;-78
2022/05/31 08:38:16;;;;;;;;;;;;;;;23.62;27.71;101213.22;4975886;28;19914;-78
2022/05/31 08:40:51;;;;;;;;;;;;;;;23.61;28.52;101217.06;4975636;28;19966;-78
2022/05/31 08:43:17;;;;;;;;;;;;;;;22.88;30.45;101206.34;4957830;28;19969;-77
2022/05/31 08:45:47;;;;;;;;;;;;;;;24.06;28.30;101202.06;4975282;28;19974;-78
2022/05/31 08:48:18;;;;;;;;;;;;;;;25.24;26.95;101205.50;4958167;28;19921;-78
2022/05/31 08:53:42;;;;;;;;;;;;;;;25.97;25.74;101208.09;4960725;28;20393;-78
2022/05/31 08:58:58;;;;;;;;;;;;;;;24.90;26.30;101205.91;4960933;28;19945;-79
2022/05/31 09:01:24;;;;;;;;;;;;;;;23.42;28.75;101195.44;4976359;28;19977;-77
2022/05/31 09:03:54;;;;;;;;;;;;;;;23.43;29.04;101194.38;4976170;28;19937;-78
2022/05/31 09:06:25;;;;;;;;;;;;;;;23.06;29.60;101187.91;4958284;28;19918;-79
2022/05/31 09:09:00;;;;;;;;;;;;;;;23.26;29.87;101193.63;4959205;28;20057;-80
2022/05/31 09:11:29;;;;;;;;;;;;;;;21.18;31.03;101192.88;4976228;28;19914;-79
2022/05/31 09:13:58;;;;;;;;;;;;;;;20.08;32.75;101192.63;4975922;28;20243;-77
2022/05/31 09:16:23;;;;;;;;;;;;;;;19.43;34.56;101182.53;4975109;28;20430;-76
2022/05/31 09:18:52;;;;;;;;;;;;;;;19.21;33.78;101186.81;4957618;28;19957;-79
2022/05/31 09:21:22;;;;;;;;;;;;;;;18.49;35.21;101182.00;4958392;28;19914;-78
2022/05/31 09:23:47;;;;;;;;;;;;;;;18.33;34.76;101183.44;4988390;28;19906;-79
2022/05/31 09:26:29;;;;;;;;;;;;;;;18.13;35.65;101180.88;4997893;28;19965;-78
2022/05/31 09:28:54;;;;;;;;;;;;;;;18.14;34.19;101179.84;4959158;28;20429;-79
2022/05/31 09:31:38;;;;;;;;;;;;;;;18.24;35.62;101186.66;4976464;28;19918;-77
2022/05/31 09:34:06;;;;;;;;;;;;;;;18.28;33.40;101182.44;4980382;28;20013;-78
2022/05/31 09:36:35;;;;;;;;;;;;;;;18.22;34.28;101178.72;4975294;28;20349;-78
2022/05/31 09:39:12;;;;;;;;;;;;;;;18.08;34.08;101175.28;4975246;28;19961;-78
2022/05/31 09:41:42;;;;;;;;;;;;;;;17.90;35.56;101181.50;4984137;28;20009;-78
2022/05/31 09:44:17;;;;;;;;;;;;;;;17.86;37.41;101182.19;4978811;28;19924;-78
2022/05/31 09:46:48;;;;;;;;;;;;;;;18.01;39.43;101176.38;4978999;28;20020;-78
2022/05/31 09:49:18;;;;;;;;;;;;;;;18.06;38.57;101180.13;4984313;28;19918;-77
2022/05/31 09:51:44;;;;;;;;;;;;;;;18.11;38.84;101174.00;4959384;28;19914;-79
2022/05/31 09:57:06;;;;;;;;;;;;;;;20.00;33.97;101173.88;4974446;28;19921;-78
2022/05/31 09:59:31;;;;;;;;;;;;;;;22.12;31.80;101174.00;4974216;28;19922;-78
2022/05/31 10:02:02;;;;;;;;;;;;;;;23.39;30.24;101175.91;4973794;28;20330;-77
2022/05/31 10:04:29;;;;;;;;;;;;;;;23.73;29.20;101172.97;4974265;28;19918;-78
2022/05/31 10:07:05;;;;;;;;;;;;;;;23.54;29.35;101169.72;4974487;28;19968;-79
2022/05/31 10:09:32;;;;;;;;;;;;;;;23.43;30.14;101168.78;4973872;28;19925;-78
2022/05/31 10:12:20;;;;;;;;;;;;;;;23.72;29.18;101174.84;4974636;28;19961;-78
2022/05/31 10:14:46;;;;;;;;;;;;;;;24.46;27.54;101168.56;4956601;28;20359;-79
2022/05/31 10:17:27;;;;;;;;;;;;;;;24.02;28.13;101179.78;4973456;28;19917;-78
2022/05/31 10:20:05;;;;;;;;;;;;;;;24.01;28.98;101171.78;4973637;28;19914;-78
2022/05/31 10:22:30;;;;;;;;;;;;;;;24.02;28.87;101168.78;4973594;28;20425;-79
2022/05/31 10:24:55;;;;;;;;;;;;;;;24.12;28.37;101175.44;4973333;28;19950;-78
2022/05/31 10:27:21;;;;;;;;;;;;;;;23.32;29.29;101165.13;4973489;28;19921;-78
2022/05/31 10:29:54;;;;;;;;;;;;;;;22.55;29.71;101172.44;4973376;28;19920;-77
2022/05/31 10:32:26;;;;;;;;;;;;;;;21.53;31.70;101176.28;4956472;28;20361;-77
2022/05/31 10:35:05;;;;;;;;;;;;;;;21.00;32.97;101170.06;4973303;28;19968;-78
2022/05/31 10:37:33;;;;;;;;;;;;;;;20.85;33.35;101168.94;4973232;28;19936;-78
2022/05/31 10:40:03;;;;;;;;;;;;;;;20.58;33.98;101164.00;4973289;28;20322;-77
2022/05/31 10:42:28;;;;;;;;;;;;;;;20.32;34.14;101159.84;4973620;28;19914;-77
2022/05/31 10:44:55;;;;;;;;;;;;;;;20.13;34.53;101164.59;4956086;28;19990;-77
2022/05/31 10:47:21;;;;;;;;;;;;;;;20.13;35.36;101159.97;4956883;28;19979;-77
2022/05/31 10:49:46;;;;;;;;;;;;;;;20.57;34.65;101162.34;4974510;28;19914;-78
2022/05/31 10:52:29;;;;;;;;;;;;;;;20.63;34.09;101166.84;4975026;28;19914;-77
2022/05/31 10:55:07;;;;;;;;;;;;;;;20.78;33.70;101163.63;4986136;28;19925;-79
2022/05/31 10:57:40;;;;;;;;;;;;;;;20.45;34.62;101161.50;4990476;28;20095;-78
2022/05/31 11:00:05;;;;;;;;;;;;;;;20.12;34.22;101160.22;4956715;28;19936;-79
2022/05/31 11:02:54;;;;;;;;;;;;;;;19.90;35.32;101162.69;4973093;28;20342;-78
2022/05/31 11:05:23;;;;;;;;;;;;;;;19.82;36.19;101161.13;4944967;28;19914;-78
2022/05/31 11:11:28;;;;;;;;;;;;;;;19.93;35.30;101165.81;4972957;28;19921;-78
2022/05/31 11:13:21;;;;;;;;;;;;;;;20.93;33.76;101168.53;4973360;28;19921;-79
2022/05/31 11:15:58;;;;;;;;;;;;;;;21.33;32.61;101170.41;4972811;28;19914;-79
2022/05/31 11:18:26;;;;;;;;;;;;;;;21.11;33.43;101167.53;4973063;28;19921;-78
2022/05/31 11:20:54;;;;;;;;;;;;;;;20.75;32.89;101169.56;4973140;28;19918;-79
2022/05/31 11:23:22;;;;;;;;;;;;;;;20.53;33.03;101167.41;4955850;28;19914;-79
2022/05/31 11:25:51;;;;;;;;;;;;;;;20.26;32.98;101167.09;4973579;28;20453;-79
2022/05/31 11:28:35;;;;;;;;;;;;;;;19.91;34.02;101180.75;4973969;28;19924;-79
2022/05/31 11:31:19;;;;;;;;;;;;;;;19.56;35.37;101172.44;4973113;28;20274;-79
2022/05/31 11:34:05;;;;;;;;;;;;;;;19.44;35.00;101176.00;4955704;28;19914;-78
2022/05/31 11:36:33;;;;;;;;;;;;;;;19.26;36.86;101170.59;4973458;28;19930;-78
2022/05/31 11:39:04;;;;;;;;;;;;;;;19.19;39.13;101172.56;4973179;28;19914;-78
2022/05/31 11:41:33;;;;;;;;;;;;;;;18.98;41.65;101182.91;4973744;28;20030;-79
2022/05/31 11:44:13;;;;;;;;;;;;;;;18.71;45.01;101187.00;4977159;28;19914;-79
2022/05/31 11:46:46;;;;;;;;;;;;;;;18.30;47.95;101191.19;4978008;28;20309;-79
2022/05/31 11:49:33;;;;;;;;;;;;;;;17.92;52.68;101197.63;4960225;28;19921;-79
2022/05/31 11:51:58;;;;;;;;;;;;;;;17.74;49.95;101193.75;4959571;28;20416;-78
2022/05/31 11:54:32;;;;;;;;;;;;;;;17.40;51.34;101202.34;4977426;28;20014;-79
2022/05/31 11:56:57;;;;;;;;;;;;;;;17.18;49.52;101199.97;4977233;28;20004;-78
2022/05/31 11:59:27;;;;;;;;;;;;;;;17.02;53.88;101214.88;4980455;28;19937;-79
2022/05/31 12:01:54;;;;;;;;;;;;;;;16.98;54.94;101210.09;4980521;28;19921;-79
2022/05/31 12:04:22;;;;;;;;;;;;;;;16.92;49.26;101206.34;4978618;28;19914;-78
2022/05/31 12:06:47;;;;;;;;;;;;;;;17.01;51.55;101205.06;4985922;28;19914;-78
2022/05/31 12:09:17;;;;;;;;;;;;;;;17.06;50.25;101207.13;4996446;28;19933;-78
2022/05/31 12:11:42;;;;;;;;;;;;;;;17.38;49.95;101199.00;4957442;28;20359;-79
2022/05/31 12:14:11;;;;;;;;;;;;;;;17.52;49.34;101189.72;4988545;28;19914;-79
2022/05/31 12:16:36;;;;;;;;;;;;;;;17.98;50.48;101196.72;4983739;28;19920;-79
2022/05/31 12:19:20;;;;;;;;;;;;;;;18.67;47.39;101185.78;4961599;28;19914;-79
2022/05/31 12:21:55;;;;;;;;;;;;;;;19.82;49.35;101188.44;4962616;28;19914;-78
2022/05/31 12:24:38;;;;;;;;;;;;;;;21.09;42.01;101191.56;4996839;28;19917;-78
2022/05/31 12:27:04;;;;;;;;;;;;;;;22.00;39.14;101192.44;4965807;28;19918;-77
2022/05/31 12:29:34;;;;;;;;;;;;;;;22.43;36.49;101182.69;4976226;28;20304;-77
2022/05/31 12:32:18;;;;;;;;;;;;;;;22.39;36.24;101177.97;4958900;28;19920;-78
2022/05/31 12:34:43;;;;;;;;;;;;;;;22.71;34.95;101178.13;4958514;28;19925;-78
2022/05/31 12:37:09;;;;;;;;;;;;;;;23.34;33.01;101171.19;4975666;28;19914;-77
2022/05/31 12:39:38;;;;;;;;;;;;;;;22.98;32.60;101168.03;4976563;28;20382;-78
2022/05/31 12:42:12;;;;;;;;;;;;;;;22.41;34.44;101171.16;4958580;28;19914;-79
2022/05/31 12:44:38;;;;;;;;;;;;;;;22.16;34.89;101176.22;4977234;28;20330;-76
2022/05/31 12:47:17;;;;;;;;;;;;;;;22.09;35.15;101169.00;4958934;28;19914;-75
2022/05/31 12:49:53;;;;;;;;;;;;;;;21.59;36.38;101169.84;4958417;28;19918;-78
2022/05/31 12:55:11;;;;;;;;;;;;;;;20.66;37.60;101166.38;4984948;28;19965;-79
2022/05/31 13:00:32;;;;;;;;;;;;;;;19.61;40.52;101172.59;4989103;28;19962;-77
2022/05/31 13:02:57;;;;;;;;;;;;;;;19.19;39.95;101170.66;4988265;28;19949;-78
2022/05/31 13:05:32;;;;;;;;;;;;;;;18.97;41.99;101173.06;4975251;28;19914;-79
2022/05/31 13:08:11;;;;;;;;;;;;;;;18.82;40.68;101172.63;4975146;28;20370;-79